sensor_id;sensor_type;location;lat;lon;timestamp;temperature;humidity
43320;DHT22;28914;48.722;9.332;2023-12-20T00:03:09;8.50;82.60
43320;DHT22;28914;48.722;9.332;2023-12-20T00:08:28;8.60;82.60
43320;DHT22;28914;48.722;9.332;2023-12-20T00:13:47;8.60;82.60
43320;DHT22;28914;48.722;9.332;2023-12-20T00:19:06;8.70;82.70
43320;DHT22;28914;48.722;9.332;2023-12-20T00:24:26;8.70;82.60
43320;DHT22;28914;48.722;9.332;2023-12-20T00:29:45;8.80;82.70
43320;DHT22;28914;48.722;9.332;2023-12-20T00:35:08;8.90;82.90
43320;DHT22;28914;48.722;9.332;2023-12-20T00:40:27;9.00;82.90
43320;DHT22;28914;48.722;9.332;2023-12-20T00:45:46;9.20;82.70
43320;DHT22;28914;48.722;9.332;2023-12-20T00:51:06;9.30;82.20
43320;DHT22;28914;48.722;9.332;2023-12-20T00:56:25;9.50;82.00
43320;DHT22;28914;48.722;9.332;2023-12-20T01:01:44;9.60;81.80
43320;DHT22;28914;48.722;9.332;2023-12-20T01:07:03;9.70;81.40
43320;DHT22;28914;48.722;9.332;2023-12-20T01:12:23;9.80;81.20
43320;DHT22;28914;48.722;9.332;2023-12-20T01:17:41;9.90;81.20
43320;DHT22;28914;48.722;9.332;2023-12-20T01:23:01;9.90;81.20
43320;DHT22;28914;48.722;9.332;2023-12-20T01:28:20;9.90;81.20
43320;DHT22;28914;48.722;9.332;2023-12-20T01:33:39;9.90;81.30
43320;DHT22;28914;48.722;9.332;2023-12-20T01:38:58;9.80;81.50
43320;DHT22;28914;48.722;9.332;2023-12-20T01:44:17;9.70;81.80
43320;DHT22;28914;48.722;9.332;2023-12-20T01:49:37;9.60;82.10
43320;DHT22;28914;48.722;9.332;2023-12-20T01:54:57;9.50;82.30
43320;DHT22;28914;48.722;9.332;2023-12-20T02:00:22;9.50;82.50
43320;DHT22;28914;48.722;9.332;2023-12-20T02:05:45;9.40;82.70
43320;DHT22;28914;48.722;9.332;2023-12-20T02:11:06;9.40;82.90
43320;DHT22;28914;48.722;9.332;2023-12-20T02:16:25;9.40;83.10
43320;DHT22;28914;48.722;9.332;2023-12-20T02:21:44;9.40;83.30
43320;DHT22;28914;48.722;9.332;2023-12-20T02:27:06;9.40;83.80
43320;DHT22;28914;48.722;9.332;2023-12-20T02:32:26;9.50;83.80
43320;DHT22;28914;48.722;9.332;2023-12-20T02:37:45;9.50;83.90
43320;DHT22;28914;48.722;9.332;2023-12-20T02:43:04;9.50;83.90
43320;DHT22;28914;48.722;9.332;2023-12-20T02:48:23;9.50;84.00
43320;DHT22;28914;48.722;9.332;2023-12-20T02:53:43;9.50;83.90
43320;DHT22;28914;48.722;9.332;2023-12-20T02:59:02;9.40;83.80
43320;DHT22;28914;48.722;9.332;2023-12-20T03:04:24;9.40;83.90
43320;DHT22;28914;48.722;9.332;2023-12-20T03:09:43;9.40;83.80
43320;DHT22;28914;48.722;9.332;2023-12-20T03:15:03;9.40;83.80
43320;DHT22;28914;48.722;9.332;2023-12-20T03:20:22;9.40;83.80
43320;DHT22;28914;48.722;9.332;2023-12-20T03:25:41;9.40;83.80
43320;DHT22;28914;48.722;9.332;2023-12-20T03:31:00;9.40;83.80
43320;DHT22;28914;48.722;9.332;2023-12-20T03:36:21;9.30;83.80
43320;DHT22;28914;48.722;9.332;2023-12-20T03:41:40;9.30;83.90
43320;DHT22;28914;48.722;9.332;2023-12-20T03:46:59;9.20;84.00
43320;DHT22;28914;48.722;9.332;2023-12-20T03:52:18;9.30;84.10
43320;DHT22;28914;48.722;9.332;2023-12-20T03:57:38;9.30;84.30
43320;DHT22;28914;48.722;9.332;2023-12-20T04:02:57;9.30;84.30
43320;DHT22;28914;48.722;9.332;2023-12-20T04:08:16;9.30;84.40
43320;DHT22;28914;48.722;9.332;2023-12-20T04:13:35;9.30;84.60
43320;DHT22;28914;48.722;9.332;2023-12-20T04:18:55;9.30;84.60
43320;DHT22;28914;48.722;9.332;2023-12-20T04:24:14;9.30;84.60
43320;DHT22;28914;48.722;9.332;2023-12-20T04:29:33;9.30;84.60
43320;DHT22;28914;48.722;9.332;2023-12-20T04:34:52;9.30;84.70
43320;DHT22;28914;48.722;9.332;2023-12-20T04:40:11;9.30;84.70
43320;DHT22;28914;48.722;9.332;2023-12-20T04:45:31;9.30;84.80
43320;DHT22;28914;48.722;9.332;2023-12-20T04:50:50;9.30;84.70
43320;DHT22;28914;48.722;9.332;2023-12-20T04:56:09;9.30;84.80
43320;DHT22;28914;48.722;9.332;2023-12-20T05:01:29;9.30;84.80
43320;DHT22;28914;48.722;9.332;2023-12-20T05:06:48;9.30;85.60
43320;DHT22;28914;48.722;9.332;2023-12-20T05:12:09;9.30;84.70
43320;DHT22;28914;48.722;9.332;2023-12-20T05:17:28;9.20;84.70
43320;DHT22;28914;48.722;9.332;2023-12-20T05:22:47;9.30;84.90
43320;DHT22;28914;48.722;9.332;2023-12-20T05:28:07;9.20;84.70
43320;DHT22;28914;48.722;9.332;2023-12-20T05:33:26;9.20;84.70
43320;DHT22;28914;48.722;9.332;2023-12-20T05:38:45;9.20;84.90
43320;DHT22;28914;48.722;9.332;2023-12-20T05:44:04;9.20;84.90
43320;DHT22;28914;48.722;9.332;2023-12-20T05:49:24;9.20;85.00
43320;DHT22;28914;48.722;9.332;2023-12-20T05:54:43;9.20;85.20
43320;DHT22;28914;48.722;9.332;2023-12-20T06:00:02;9.30;85.20
43320;DHT22;28914;48.722;9.332;2023-12-20T06:05:22;9.30;85.20
43320;DHT22;28914;48.722;9.332;2023-12-20T06:10:41;9.30;85.20
43320;DHT22;28914;48.722;9.332;2023-12-20T06:16:00;9.30;85.10
43320;DHT22;28914;48.722;9.332;2023-12-20T06:21:19;9.30;85.10
43320;DHT22;28914;48.722;9.332;2023-12-20T06:26:39;9.30;85.00
43320;DHT22;28914;48.722;9.332;2023-12-20T06:31:58;9.30;85.00
43320;DHT22;28914;48.722;9.332;2023-12-20T06:37:17;9.30;85.10
43320;DHT22;28914;48.722;9.332;2023-12-20T06:42:36;9.30;85.10
43320;DHT22;28914;48.722;9.332;2023-12-20T06:47:56;9.30;85.30
43320;DHT22;28914;48.722;9.332;2023-12-20T06:53:15;9.30;85.30
43320;DHT22;28914;48.722;9.332;2023-12-20T06:58:35;9.30;85.30
43320;DHT22;28914;48.722;9.332;2023-12-20T07:03:55;9.30;85.30
43320;DHT22;28914;48.722;9.332;2023-12-20T07:09:14;9.30;85.30
43320;DHT22;28914;48.722;9.332;2023-12-20T07:14:34;9.30;85.30
43320;DHT22;28914;48.722;9.332;2023-12-20T07:19:53;9.30;85.30
43320;DHT22;28914;48.722;9.332;2023-12-20T07:25:12;9.30;85.40
43320;DHT22;28914;48.722;9.332;2023-12-20T07:30:33;9.30;85.50
43320;DHT22;28914;48.722;9.332;2023-12-20T07:35:52;9.30;85.50
43320;DHT22;28914;48.722;9.332;2023-12-20T07:41:11;9.30;85.60
43320;DHT22;28914;48.722;9.332;2023-12-20T07:46:30;9.30;85.60
43320;DHT22;28914;48.722;9.332;2023-12-20T07:51:49;9.30;85.70
43320;DHT22;28914;48.722;9.332;2023-12-20T07:57:08;9.40;85.90
43320;DHT22;28914;48.722;9.332;2023-12-20T08:02:28;9.40;86.70
43320;DHT22;28914;48.722;9.332;2023-12-20T08:07:47;9.40;86.00
43320;DHT22;28914;48.722;9.332;2023-12-20T08:13:06;9.40;85.60
43320;DHT22;28914;48.722;9.332;2023-12-20T08:18:26;9.40;85.30
43320;DHT22;28914;48.722;9.332;2023-12-20T08:23:45;9.50;85.20
43320;DHT22;28914;48.722;9.332;2023-12-20T08:29:05;9.50;85.10
43320;DHT22;28914;48.722;9.332;2023-12-20T08:34:24;9.60;85.00
43320;DHT22;28914;48.722;9.332;2023-12-20T08:39:43;9.60;84.70
43320;DHT22;28914;48.722;9.332;2023-12-20T08:45:03;9.70;84.30
43320;DHT22;28914;48.722;9.332;2023-12-20T08:50:23;9.70;84.30
43320;DHT22;28914;48.722;9.332;2023-12-20T08:55:43;9.70;83.60
43320;DHT22;28914;48.722;9.332;2023-12-20T09:01:02;9.80;83.00
43320;DHT22;28914;48.722;9.332;2023-12-20T09:06:21;9.80;82.60
43320;DHT22;28914;48.722;9.332;2023-12-20T09:11:41;9.80;82.60
43320;DHT22;28914;48.722;9.332;2023-12-20T09:17:00;9.70;82.20
43320;DHT22;28914;48.722;9.332;2023-12-20T09:22:20;9.60;81.70
43320;DHT22;28914;48.722;9.332;2023-12-20T09:27:39;9.60;81.80
43320;DHT22;28914;48.722;9.332;2023-12-20T09:32:58;9.50;81.80
43320;DHT22;28914;48.722;9.332;2023-12-20T09:38:17;9.50;82.10
43320;DHT22;28914;48.722;9.332;2023-12-20T09:43:37;9.50;81.80
43320;DHT22;28914;48.722;9.332;2023-12-20T09:48:57;9.50;81.50
43320;DHT22;28914;48.722;9.332;2023-12-20T09:54:18;9.40;81.20
43320;DHT22;28914;48.722;9.332;2023-12-20T09:59:37;9.40;81.10
43320;DHT22;28914;48.722;9.332;2023-12-20T10:04:56;9.40;81.30
43320;DHT22;28914;48.722;9.332;2023-12-20T10:10:15;9.60;82.60
43320;DHT22;28914;48.722;9.332;2023-12-20T10:15:36;10.30;83.60
43320;DHT22;28914;48.722;9.332;2023-12-20T10:20:55;11.20;83.40
43320;DHT22;28914;48.722;9.332;2023-12-20T10:26:21;12.80;86.10
43320;DHT22;28914;48.722;9.332;2023-12-20T10:31:40;14.90;82.20
43320;DHT22;28914;48.722;9.332;2023-12-20T10:37:01;17.00;80.10
43320;DHT22;28914;48.722;9.332;2023-12-20T10:42:21;18.70;72.70
43320;DHT22;28914;48.722;9.332;2023-12-20T10:47:42;20.20;67.10
43320;DHT22;28914;48.722;9.332;2023-12-20T10:53:02;21.30;64.60
43320;DHT22;28914;48.722;9.332;2023-12-20T10:58:22;21.70;58.80
43320;DHT22;28914;48.722;9.332;2023-12-20T11:03:46;21.00;55.60
43320;DHT22;28914;48.722;9.332;2023-12-20T11:09:26;19.60;54.10
43320;DHT22;28914;48.722;9.332;2023-12-20T11:14:50;18.10;54.80
43320;DHT22;28914;48.722;9.332;2023-12-20T11:20:11;16.90;56.10
43320;DHT22;28914;48.722;9.332;2023-12-20T11:25:46;16.00;57.80
43320;DHT22;28914;48.722;9.332;2023-12-20T11:31:07;15.00;57.90
43320;DHT22;28914;48.722;9.332;2023-12-20T11:36:32;14.20;58.80
43320;DHT22;28914;48.722;9.332;2023-12-20T11:41:52;13.40;59.80
43320;DHT22;28914;48.722;9.332;2023-12-20T11:47:12;12.80;61.70
43320;DHT22;28914;48.722;9.332;2023-12-20T11:52:31;12.30;63.30
43320;DHT22;28914;48.722;9.332;2023-12-20T11:57:51;12.00;64.50
43320;DHT22;28914;48.722;9.332;2023-12-20T12:03:10;11.70;64.80
43320;DHT22;28914;48.722;9.332;2023-12-20T12:08:33;11.60;65.80
43320;DHT22;28914;48.722;9.332;2023-12-20T12:13:52;11.50;65.90
43320;DHT22;28914;48.722;9.332;2023-12-20T12:19:24;11.40;65.50
43320;DHT22;28914;48.722;9.332;2023-12-20T12:24:44;11.20;66.20
43320;DHT22;28914;48.722;9.332;2023-12-20T12:30:04;11.10;66.10
43320;DHT22;28914;48.722;9.332;2023-12-20T12:35:25;10.90;66.40
43320;DHT22;28914;48.722;9.332;2023-12-20T12:40:45;10.70;66.40
43320;DHT22;28914;48.722;9.332;2023-12-20T12:46:04;10.70;67.20
43320;DHT22;28914;48.722;9.332;2023-12-20T12:51:23;10.70;67.60
43320;DHT22;28914;48.722;9.332;2023-12-20T12:56:43;10.60;67.70
43320;DHT22;28914;48.722;9.332;2023-12-20T13:02:02;10.60;68.10
43320;DHT22;28914;48.722;9.332;2023-12-20T13:07:22;10.70;68.70
43320;DHT22;28914;48.722;9.332;2023-12-20T13:12:42;10.70;69.10
43320;DHT22;28914;48.722;9.332;2023-12-20T13:18:01;10.80;69.10
43320;DHT22;28914;48.722;9.332;2023-12-20T13:23:21;10.90;68.50
43320;DHT22;28914;48.722;9.332;2023-12-20T13:28:40;10.90;68.50
43320;DHT22;28914;48.722;9.332;2023-12-20T13:34:00;10.90;68.60
43320;DHT22;28914;48.722;9.332;2023-12-20T13:39:19;10.90;68.40
43320;DHT22;28914;48.722;9.332;2023-12-20T13:44:38;10.90;68.00
43320;DHT22;28914;48.722;9.332;2023-12-20T13:49:58;10.80;68.30
43320;DHT22;28914;48.722;9.332;2023-12-20T13:55:17;10.80;68.40
43320;DHT22;28914;48.722;9.332;2023-12-20T14:00:36;10.90;68.40
43320;DHT22;28914;48.722;9.332;2023-12-20T14:05:56;10.80;68.20
43320;DHT22;28914;48.722;9.332;2023-12-20T14:11:15;10.80;67.70
43320;DHT22;28914;48.722;9.332;2023-12-20T14:16:35;10.70;67.10
43320;DHT22;28914;48.722;9.332;2023-12-20T14:21:54;10.70;67.90
43320;DHT22;28914;48.722;9.332;2023-12-20T14:27:13;10.60;67.70
43320;DHT22;28914;48.722;9.332;2023-12-20T14:32:34;10.60;68.10
43320;DHT22;28914;48.722;9.332;2023-12-20T14:37:55;10.60;68.50
43320;DHT22;28914;48.722;9.332;2023-12-20T14:43:15;10.50;68.60
43320;DHT22;28914;48.722;9.332;2023-12-20T14:48:35;10.50;68.60
43320;DHT22;28914;48.722;9.332;2023-12-20T14:53:54;10.40;68.60
43320;DHT22;28914;48.722;9.332;2023-12-20T14:59:13;10.40;68.70
43320;DHT22;28914;48.722;9.332;2023-12-20T15:04:33;10.30;68.90
43320;DHT22;28914;48.722;9.332;2023-12-20T15:09:52;10.30;69.30
43320;DHT22;28914;48.722;9.332;2023-12-20T15:15:11;10.20;69.70
43320;DHT22;28914;48.722;9.332;2023-12-20T15:20:31;10.10;70.10
43320;DHT22;28914;48.722;9.332;2023-12-20T15:25:52;9.90;70.30
43320;DHT22;28914;48.722;9.332;2023-12-20T15:31:11;9.90;70.70
43320;DHT22;28914;48.722;9.332;2023-12-20T15:36:31;9.80;71.00
43320;DHT22;28914;48.722;9.332;2023-12-20T15:41:50;9.80;71.30
43320;DHT22;28914;48.722;9.332;2023-12-20T15:47:10;9.70;71.60
43320;DHT22;28914;48.722;9.332;2023-12-20T15:52:30;9.70;71.80
43320;DHT22;28914;48.722;9.332;2023-12-20T15:57:49;9.60;72.10
43320;DHT22;28914;48.722;9.332;2023-12-20T16:03:08;9.60;72.30
43320;DHT22;28914;48.722;9.332;2023-12-20T16:08:28;9.60;72.60
43320;DHT22;28914;48.722;9.332;2023-12-20T16:13:47;9.50;72.60
43320;DHT22;28914;48.722;9.332;2023-12-20T16:19:06;9.50;72.70
43320;DHT22;28914;48.722;9.332;2023-12-20T16:24:26;9.50;72.80
43320;DHT22;28914;48.722;9.332;2023-12-20T16:29:45;9.40;73.00
43320;DHT22;28914;48.722;9.332;2023-12-20T16:35:04;9.40;73.20
43320;DHT22;28914;48.722;9.332;2023-12-20T16:40:23;9.40;73.40
43320;DHT22;28914;48.722;9.332;2023-12-20T16:45:43;9.40;73.60
43320;DHT22;28914;48.722;9.332;2023-12-20T16:51:02;9.40;73.80
43320;DHT22;28914;48.722;9.332;2023-12-20T16:56:21;9.40;73.80
43320;DHT22;28914;48.722;9.332;2023-12-20T17:01:41;9.40;73.90
43320;DHT22;28914;48.722;9.332;2023-12-20T17:07:04;9.40;73.90
43320;DHT22;28914;48.722;9.332;2023-12-20T17:12:23;9.50;73.90
43320;DHT22;28914;48.722;9.332;2023-12-20T17:17:43;9.50;73.80
43320;DHT22;28914;48.722;9.332;2023-12-20T17:23:03;9.50;73.70
43320;DHT22;28914;48.722;9.332;2023-12-20T17:28:22;9.50;73.70
43320;DHT22;28914;48.722;9.332;2023-12-20T17:33:41;9.40;73.50
43320;DHT22;28914;48.722;9.332;2023-12-20T17:39:00;9.40;73.60
43320;DHT22;28914;48.722;9.332;2023-12-20T17:44:20;9.40;73.70
43320;DHT22;28914;48.722;9.332;2023-12-20T17:49:40;9.30;73.80
43320;DHT22;28914;48.722;9.332;2023-12-20T17:55:00;9.30;73.90
43320;DHT22;28914;48.722;9.332;2023-12-20T18:00:20;9.20;74.00
43320;DHT22;28914;48.722;9.332;2023-12-20T18:05:41;9.20;74.10
43320;DHT22;28914;48.722;9.332;2023-12-20T18:11:01;9.20;74.30
43320;DHT22;28914;48.722;9.332;2023-12-20T18:16:20;9.20;74.20
43320;DHT22;28914;48.722;9.332;2023-12-20T18:21:40;9.20;74.20
43320;DHT22;28914;48.722;9.332;2023-12-20T18:26:59;9.20;74.20
43320;DHT22;28914;48.722;9.332;2023-12-20T18:32:18;9.20;74.40
43320;DHT22;28914;48.722;9.332;2023-12-20T18:37:37;9.20;74.50
43320;DHT22;28914;48.722;9.332;2023-12-20T18:42:57;9.20;74.40
43320;DHT22;28914;48.722;9.332;2023-12-20T18:48:17;9.20;74.50
43320;DHT22;28914;48.722;9.332;2023-12-20T18:53:36;9.10;74.50
43320;DHT22;28914;48.722;9.332;2023-12-20T18:58:57;9.10;74.50
43320;DHT22;28914;48.722;9.332;2023-12-20T19:04:16;9.10;74.40
43320;DHT22;28914;48.722;9.332;2023-12-20T19:09:35;9.10;74.40
43320;DHT22;28914;48.722;9.332;2023-12-20T19:14:54;9.20;74.60
43320;DHT22;28914;48.722;9.332;2023-12-20T19:20:13;9.20;74.60
43320;DHT22;28914;48.722;9.332;2023-12-20T19:25:32;9.20;75.20
43320;DHT22;28914;48.722;9.332;2023-12-20T19:30:51;9.20;74.50
43320;DHT22;28914;48.722;9.332;2023-12-20T19:36:11;9.20;74.30
43320;DHT22;28914;48.722;9.332;2023-12-20T19:41:30;9.20;74.30
43320;DHT22;28914;48.722;9.332;2023-12-20T19:46:49;9.30;74.30
43320;DHT22;28914;48.722;9.332;2023-12-20T19:52:09;9.20;74.20
43320;DHT22;28914;48.722;9.332;2023-12-20T19:57:29;9.20;74.00
43320;DHT22;28914;48.722;9.332;2023-12-20T20:02:48;9.20;74.00
43320;DHT22;28914;48.722;9.332;2023-12-20T20:08:07;9.20;74.00
43320;DHT22;28914;48.722;9.332;2023-12-20T20:13:26;9.20;74.10
43320;DHT22;28914;48.722;9.332;2023-12-20T20:18:45;9.10;74.00
43320;DHT22;28914;48.722;9.332;2023-12-20T20:24:05;9.10;74.00
43320;DHT22;28914;48.722;9.332;2023-12-20T20:29:25;9.10;74.10
43320;DHT22;28914;48.722;9.332;2023-12-20T20:34:44;9.10;74.20
43320;DHT22;28914;48.722;9.332;2023-12-20T20:40:03;9.10;74.40
43320;DHT22;28914;48.722;9.332;2023-12-20T20:45:23;9.10;74.40
43320;DHT22;28914;48.722;9.332;2023-12-20T20:50:43;9.10;74.50
43320;DHT22;28914;48.722;9.332;2023-12-20T20:56:02;9.10;74.50
43320;DHT22;28914;48.722;9.332;2023-12-20T21:01:21;9.10;74.40
43320;DHT22;28914;48.722;9.332;2023-12-20T21:06:40;9.10;74.40
43320;DHT22;28914;48.722;9.332;2023-12-20T21:11:59;9.10;74.50
43320;DHT22;28914;48.722;9.332;2023-12-20T21:17:19;9.20;74.50
43320;DHT22;28914;48.722;9.332;2023-12-20T21:22:38;9.20;74.50
43320;DHT22;28914;48.722;9.332;2023-12-20T21:27:58;9.20;74.50
43320;DHT22;28914;48.722;9.332;2023-12-20T21:33:17;9.20;74.60
43320;DHT22;28914;48.722;9.332;2023-12-20T21:38:37;9.20;74.30
43320;DHT22;28914;48.722;9.332;2023-12-20T21:43:56;9.20;74.20
43320;DHT22;28914;48.722;9.332;2023-12-20T21:49:16;9.20;74.20
43320;DHT22;28914;48.722;9.332;2023-12-20T21:54:37;9.30;73.80
43320;DHT22;28914;48.722;9.332;2023-12-20T21:59:56;9.30;73.90
43320;DHT22;28914;48.722;9.332;2023-12-20T22:05:17;9.30;73.90
43320;DHT22;28914;48.722;9.332;2023-12-20T22:10:37;9.30;73.80
43320;DHT22;28914;48.722;9.332;2023-12-20T22:15:57;9.20;73.70
43320;DHT22;28914;48.722;9.332;2023-12-20T22:21:16;9.20;73.70
43320;DHT22;28914;48.722;9.332;2023-12-20T22:26:36;9.20;73.80
43320;DHT22;28914;48.722;9.332;2023-12-20T22:31:55;9.20;73.90
43320;DHT22;28914;48.722;9.332;2023-12-20T22:37:15;9.20;74.00
43320;DHT22;28914;48.722;9.332;2023-12-20T22:42:34;9.20;74.20
43320;DHT22;28914;48.722;9.332;2023-12-20T22:47:53;9.20;74.30
43320;DHT22;28914;48.722;9.332;2023-12-20T22:53:12;9.30;74.40
43320;DHT22;28914;48.722;9.332;2023-12-20T22:58:32;9.30;74.40
43320;DHT22;28914;48.722;9.332;2023-12-20T23:03:51;9.30;74.30
43320;DHT22;28914;48.722;9.332;2023-12-20T23:09:10;9.30;74.30
43320;DHT22;28914;48.722;9.332;2023-12-20T23:14:30;9.30;74.20
43320;DHT22;28914;48.722;9.332;2023-12-20T23:19:49;9.40;73.90
43320;DHT22;28914;48.722;9.332;2023-12-20T23:25:08;9.40;74.60
43320;DHT22;28914;48.722;9.332;2023-12-20T23:30:27;9.40;74.00
43320;DHT22;28914;48.722;9.332;2023-12-20T23:35:47;9.40;73.90
43320;DHT22;28914;48.722;9.332;2023-12-20T23:41:06;9.50;73.80
43320;DHT22;28914;48.722;9.332;2023-12-20T23:46:26;9.50;73.90
43320;DHT22;28914;48.722;9.332;2023-12-20T23:51:45;9.50;73.80
43320;DHT22;28914;48.722;9.332;2023-12-20T23:57:04;9.60;73.80
